createdAt,value
2023-01-29T00:01:04.901Z,49.29
2023-01-29T00:03:06.203Z,49.22
2023-01-29T00:05:25.940Z,49.66
2023-01-29T00:07:28.613Z,50.14
2023-01-29T00:09:31.390Z,48.53
2023-01-29T00:11:32.938Z,37.01
2023-01-29T00:13:37.270Z,35.34
2023-01-29T00:15:38.567Z,36.61
2023-01-29T00:17:39.908Z,42.05
2023-01-29T00:19:41.209Z,41.22
2023-01-29T00:21:42.556Z,40.86
2023-01-29T00:23:43.874Z,40.99
2023-01-29T00:25:45.182Z,41.50
2023-01-29T00:27:46.609Z,42.10
2023-01-29T00:30:07.974Z,42.45
2023-01-29T00:32:09.373Z,43.08
2023-01-29T00:34:10.722Z,43.75
2023-01-29T00:36:12.137Z,44.06
2023-01-29T00:38:13.451Z,44.07
2023-01-29T00:40:15.418Z,44.61
2023-01-29T00:42:35.523Z,45.19
2023-01-29T00:44:55.470Z,44.98
2023-01-29T00:46:56.832Z,45.22
2023-01-29T00:49:00.639Z,45.60
2023-01-29T00:51:02.241Z,45.96
2023-01-29T00:53:03.581Z,46.05
2023-01-29T00:55:04.874Z,46.00
2023-01-29T00:57:06.240Z,46.23
2023-01-29T00:59:07.582Z,46.43
2023-01-29T01:01:08.936Z,47.09
2023-01-29T01:03:10.350Z,46.79
2023-01-29T01:05:14.133Z,47.40
2023-01-29T01:07:15.572Z,47.07
2023-01-29T01:09:35.268Z,47.20
2023-01-29T01:11:36.588Z,47.51
2023-01-29T01:13:37.882Z,47.70
2023-01-29T01:15:39.167Z,47.92
2023-01-29T01:17:40.477Z,48.44
2023-01-29T01:19:41.816Z,49.06
2023-01-29T01:21:48.359Z,49.07
2023-01-29T01:23:51.954Z,49.21
2023-01-29T01:25:53.310Z,49.52
2023-01-29T01:27:54.604Z,49.22
2023-01-29T01:29:55.898Z,49.88
2023-01-29T01:31:57.681Z,49.97
2023-01-29T01:33:59.043Z,50.52
2023-01-29T01:36:00.338Z,50.93
2023-01-29T01:38:02.217Z,51.21
2023-01-29T01:40:03.515Z,51.40
2023-01-29T01:42:04.815Z,51.49
2023-01-29T01:44:06.425Z,51.95
2023-01-29T01:46:07.799Z,52.08
2023-01-29T01:48:11.339Z,52.24
2023-01-29T01:50:12.685Z,52.83
2023-01-29T01:52:14.484Z,52.67
2023-01-29T01:54:15.807Z,52.83
2023-01-29T01:56:17.146Z,52.74
2023-01-29T01:58:18.505Z,52.84
2023-01-29T02:00:20.114Z,52.79
2023-01-29T02:02:40.296Z,52.30
2023-01-29T02:05:00.144Z,52.16
2023-01-29T02:07:20.038Z,52.66
2023-01-29T02:09:36.418Z,52.55
2023-01-29T02:11:37.760Z,52.15
2023-01-29T02:13:39.096Z,52.15
2023-01-29T02:15:41.914Z,51.77
2023-01-29T02:17:48.203Z,51.65
2023-01-29T02:19:49.576Z,51.06
2023-01-29T02:21:51.301Z,51.47
2023-01-29T02:23:52.689Z,51.52
2023-01-29T02:25:54.002Z,51.43
2023-01-29T02:27:55.295Z,51.11
2023-01-29T02:29:56.619Z,51.58
2023-01-29T02:31:57.999Z,51.13
2023-01-29T02:33:59.385Z,51.85
2023-01-29T02:36:00.764Z,51.48
2023-01-29T02:38:02.080Z,51.80
2023-01-29T02:40:04.259Z,51.54
2023-01-29T02:42:06.111Z,51.90
2023-01-29T02:44:07.434Z,52.01
2023-01-29T02:46:08.832Z,52.03
2023-01-29T02:48:10.151Z,52.16
2023-01-29T02:50:11.487Z,52.33
2023-01-29T02:52:12.778Z,52.04
2023-01-29T02:54:14.110Z,52.35
2023-01-29T02:56:15.420Z,52.35
2023-01-29T02:58:16.769Z,52.52
2023-01-29T03:00:18.445Z,52.60
2023-01-29T03:02:20.049Z,52.88
2023-01-29T03:04:21.430Z,52.88
2023-01-29T03:06:24.267Z,53.20
2023-01-29T03:08:29.596Z,53.21
2023-01-29T03:10:31.141Z,53.30
2023-01-29T03:12:35.510Z,53.37
2023-01-29T03:14:55.632Z,53.53
2023-01-29T03:16:56.922Z,53.78
2023-01-29T03:18:58.262Z,53.51
2023-01-29T03:20:59.553Z,53.29
2023-01-29T03:23:02.355Z,53.45
2023-01-29T03:25:22.456Z,53.45
2023-01-29T03:27:42.415Z,53.43
2023-01-29T03:30:02.259Z,53.45
2023-01-29T03:32:09.437Z,52.97
2023-01-29T03:34:16.586Z,52.96
2023-01-29T03:36:17.974Z,52.57
2023-01-29T03:38:19.269Z,52.34
2023-01-29T03:40:20.566Z,52.18
2023-01-29T03:42:22.100Z,52.24
2023-01-29T03:44:24.950Z,51.94
2023-01-29T03:46:29.310Z,51.75
2023-01-29T03:48:30.624Z,51.73
2023-01-29T03:50:31.952Z,52.06
2023-01-29T03:52:34.982Z,52.12
2023-01-29T03:54:36.256Z,51.83
2023-01-29T03:56:37.589Z,52.60
2023-01-29T03:58:38.918Z,52.22
2023-01-29T04:00:40.234Z,52.53
2023-01-29T04:02:41.524Z,52.53
2023-01-29T04:04:42.819Z,52.57
2023-01-29T04:06:44.120Z,52.56
2023-01-29T04:08:45.475Z,52.84
2023-01-29T04:10:46.762Z,53.08
2023-01-29T04:12:48.087Z,52.83
2023-01-29T04:14:49.425Z,53.03
2023-01-29T04:16:51.060Z,53.01
2023-01-29T04:18:52.717Z,53.09
2023-01-29T04:20:54.055Z,53.21
2023-01-29T04:22:55.386Z,53.35
2023-01-29T04:25:02.460Z,53.21
2023-01-29T04:27:03.824Z,53.42
2023-01-29T04:29:05.172Z,53.75
2023-01-29T04:31:06.643Z,54.28
2023-01-29T04:33:08.010Z,54.40
2023-01-29T04:35:09.331Z,54.22
2023-01-29T04:37:10.657Z,54.36
2023-01-29T04:39:12.151Z,54.50
2023-01-29T04:41:13.454Z,54.35
2023-01-29T04:43:14.758Z,54.63
2023-01-29T04:45:16.089Z,54.50
2023-01-29T04:47:17.419Z,54.22
2023-01-29T04:49:18.981Z,53.64
2023-01-29T04:51:20.267Z,53.73
2023-01-29T04:53:21.610Z,53.38
2023-01-29T04:55:22.898Z,52.87
2023-01-29T04:57:25.525Z,53.13
2023-01-29T04:59:26.873Z,52.74
2023-01-29T05:01:29.809Z,52.60
2023-01-29T05:03:31.175Z,52.61
2023-01-29T05:05:32.469Z,53.01
2023-01-29T05:07:33.898Z,52.48
2023-01-29T05:09:35.269Z,52.86
2023-01-29T05:11:36.596Z,52.43
2023-01-29T05:13:39.514Z,53.20
2023-01-29T05:15:41.089Z,52.93
2023-01-29T05:17:42.456Z,52.66
2023-01-29T05:19:43.781Z,52.45
2023-01-29T05:21:45.118Z,52.80
2023-01-29T05:23:53.332Z,52.56
2023-01-29T05:25:54.747Z,52.56
2023-01-29T05:28:14.072Z,52.80
2023-01-29T05:30:15.732Z,52.95
2023-01-29T05:32:17.336Z,53.59
2023-01-29T05:34:18.637Z,53.48
2023-01-29T05:36:19.969Z,53.66
2023-01-29T05:38:21.308Z,53.81
2023-01-29T05:40:22.641Z,53.97
2023-01-29T05:42:24.554Z,54.15
2023-01-29T05:44:25.899Z,54.37
2023-01-29T05:46:27.281Z,54.42
2023-01-29T05:48:32.391Z,54.38
2023-01-29T05:50:33.683Z,54.37
2023-01-29T05:52:35.023Z,54.54
2023-01-29T05:54:36.534Z,54.51
2023-01-29T05:56:37.866Z,54.66
2023-01-29T05:58:39.161Z,54.54
2023-01-29T06:00:40.546Z,54.59
2023-01-29T06:02:42.057Z,54.55
2023-01-29T06:04:43.413Z,54.84
2023-01-29T06:06:44.851Z,54.28
2023-01-29T06:08:46.182Z,54.09
2023-01-29T06:10:47.514Z,54.03
2023-01-29T06:12:48.853Z,53.22
2023-01-29T06:14:50.187Z,53.17
2023-01-29T06:16:51.536Z,52.82
2023-01-29T06:18:52.965Z,52.93
2023-01-29T06:20:54.303Z,52.86
2023-01-29T06:22:58.655Z,52.58
2023-01-29T06:25:00.132Z,53.25
2023-01-29T06:27:02.327Z,52.67
2023-01-29T06:29:03.705Z,52.66
2023-01-29T06:31:22.114Z,52.76
2023-01-29T06:33:26.490Z,53.51
2023-01-29T06:35:27.794Z,53.24
2023-01-29T06:37:29.158Z,53.09
2023-01-29T06:39:30.446Z,53.29
2023-01-29T06:41:31.751Z,52.84
2023-01-29T06:43:33.091Z,53.06
2023-01-29T06:45:34.479Z,52.78
2023-01-29T06:47:35.795Z,53.17
2023-01-29T06:49:37.190Z,53.65
2023-01-29T06:51:38.514Z,53.76
2023-01-29T06:53:39.848Z,53.96
2023-01-29T06:55:41.187Z,54.22
2023-01-29T06:57:42.460Z,54.38
2023-01-29T06:59:43.765Z,54.35
2023-01-29T07:01:45.220Z,54.45
2023-01-29T07:03:47.476Z,54.72
2023-01-29T07:05:48.812Z,54.63
2023-01-29T07:07:50.266Z,54.57
2023-01-29T07:09:51.557Z,54.36
2023-01-29T07:11:52.854Z,54.46
2023-01-29T07:13:54.197Z,54.16
2023-01-29T07:15:55.571Z,54.65
2023-01-29T07:17:57.207Z,54.25
2023-01-29T07:19:58.604Z,54.59
2023-01-29T07:22:02.499Z,54.35
2023-01-29T07:24:03.939Z,54.48
2023-01-29T07:26:05.367Z,54.23
2023-01-29T07:28:06.949Z,54.25
2023-01-29T07:30:08.301Z,53.99
2023-01-29T07:32:09.652Z,53.98
2023-01-29T07:34:10.965Z,54.63
2023-01-29T07:36:12.368Z,54.35
2023-01-29T07:38:13.696Z,54.04
2023-01-29T07:40:15.329Z,54.00
2023-01-29T07:42:16.742Z,53.89
2023-01-29T07:44:18.130Z,53.95
2023-01-29T07:46:19.531Z,53.21
2023-01-29T07:48:20.839Z,53.75
2023-01-29T07:50:22.247Z,53.29
2023-01-29T07:52:23.522Z,53.34
2023-01-29T07:54:24.847Z,53.41
2023-01-29T07:56:26.151Z,53.34
2023-01-29T07:58:27.663Z,52.84
2023-01-29T08:00:29.107Z,53.17
2023-01-29T08:02:30.501Z,53.36
2023-01-29T08:04:31.883Z,53.26
2023-01-29T08:06:33.206Z,53.33
2023-01-29T08:08:34.529Z,53.67
2023-01-29T08:10:35.868Z,53.58
2023-01-29T08:12:37.198Z,53.65
2023-01-29T08:14:38.511Z,53.62
2023-01-29T08:16:39.947Z,53.88
2023-01-29T08:18:44.154Z,53.53
2023-01-29T08:20:45.446Z,53.86
2023-01-29T08:22:46.730Z,53.58
2023-01-29T08:24:54.413Z,53.84
2023-01-29T08:27:01.557Z,53.78
2023-01-29T08:29:02.854Z,53.44
2023-01-29T08:31:04.446Z,53.74
2023-01-29T08:33:05.812Z,53.37
2023-01-29T08:35:07.944Z,53.71
2023-01-29T08:37:09.243Z,53.34
2023-01-29T08:39:10.578Z,53.50
2023-01-29T08:41:11.878Z,53.31
2023-01-29T08:43:13.168Z,53.37
2023-01-29T08:45:14.510Z,53.14
2023-01-29T08:47:15.801Z,53.11
2023-01-29T08:49:17.250Z,53.11
2023-01-29T08:51:18.698Z,52.84
2023-01-29T08:53:24.349Z,52.68
2023-01-29T08:55:25.743Z,52.32
2023-01-29T08:57:27.085Z,52.17
2023-01-29T08:59:28.368Z,51.76
2023-01-29T09:01:29.717Z,51.52
2023-01-29T09:03:31.082Z,51.16
2023-01-29T09:05:32.550Z,51.25
2023-01-29T09:07:33.965Z,50.63
2023-01-29T09:09:35.265Z,51.06
2023-01-29T09:11:36.739Z,50.91
2023-01-29T09:13:38.128Z,50.61
2023-01-29T09:15:39.469Z,50.42
2023-01-29T09:17:41.255Z,50.25
2023-01-29T09:19:42.645Z,50.31
2023-01-29T09:21:44.005Z,50.38
2023-01-29T09:23:45.308Z,50.39
2023-01-29T09:25:46.805Z,50.11
2023-01-29T09:27:50.994Z,49.96
2023-01-29T09:29:52.295Z,50.33
2023-01-29T09:31:53.716Z,50.27
2023-01-29T09:33:55.138Z,49.92
2023-01-29T09:35:56.509Z,49.90
2023-01-29T09:37:57.955Z,50.24
2023-01-29T09:39:59.279Z,50.47
2023-01-29T09:42:00.576Z,50.65
2023-01-29T09:44:01.905Z,50.53
2023-01-29T09:46:03.247Z,50.53
2023-01-29T09:48:05.830Z,50.75
2023-01-29T09:50:07.167Z,50.52
2023-01-29T09:52:08.496Z,50.93
2023-01-29T09:54:09.946Z,50.99
2023-01-29T09:56:11.290Z,50.93
2023-01-29T09:58:12.640Z,51.28
2023-01-29T10:00:13.983Z,51.19
2023-01-29T10:02:18.286Z,51.23
2023-01-29T10:04:19.743Z,51.24
2023-01-29T10:06:21.130Z,51.22
2023-01-29T10:08:22.534Z,51.25
2023-01-29T10:10:23.925Z,51.18
2023-01-29T10:12:25.221Z,42.60
2023-01-29T10:14:26.529Z,40.08
2023-01-29T10:16:27.861Z,39.29
2023-01-29T10:18:29.200Z,39.30
2023-01-29T10:20:33.682Z,38.72
2023-01-29T10:22:35.022Z,43.20
2023-01-29T10:24:36.350Z,39.34
2023-01-29T10:26:38.651Z,40.06
2023-01-29T10:28:40.167Z,40.33
2023-01-29T10:30:44.566Z,40.96
2023-01-29T10:32:46.010Z,41.02
2023-01-29T10:34:50.420Z,41.55
2023-01-29T10:36:51.754Z,42.53
2023-01-29T10:38:53.112Z,42.86
2023-01-29T10:40:54.489Z,43.57
2023-01-29T10:42:58.926Z,43.45
2023-01-29T10:45:00.252Z,44.02
2023-01-29T10:47:02.232Z,44.06
2023-01-29T10:49:03.534Z,44.38
2023-01-29T10:51:04.827Z,44.15
2023-01-29T10:53:06.184Z,44.27
2023-01-29T10:55:07.679Z,44.70
2023-01-29T10:57:09.094Z,44.55
2023-01-29T10:59:10.380Z,44.52
2023-01-29T11:01:11.711Z,44.75
2023-01-29T11:03:26.436Z,44.78
2023-01-29T11:05:29.082Z,44.85
2023-01-29T11:07:32.090Z,44.72
2023-01-29T11:09:33.423Z,44.86
2023-01-29T11:11:37.576Z,45.12
2023-01-29T11:13:38.900Z,45.29
2023-01-29T11:15:40.227Z,45.31
2023-01-29T11:17:42.763Z,45.57
2023-01-29T11:19:44.118Z,45.24
2023-01-29T11:21:45.457Z,45.76
2023-01-29T11:23:46.822Z,45.41
2023-01-29T11:25:48.134Z,45.58
2023-01-29T11:27:49.557Z,46.15
2023-01-29T11:29:51.381Z,45.89
2023-01-29T11:31:52.690Z,45.98
2023-01-29T11:33:54.001Z,46.07
2023-01-29T11:35:57.643Z,46.02
2023-01-29T11:37:58.935Z,46.55
2023-01-29T11:40:00.252Z,46.43
2023-01-29T11:42:11.154Z,46.72
2023-01-29T11:44:12.442Z,46.68
2023-01-29T11:46:13.808Z,46.66
2023-01-29T11:48:18.240Z,46.86
2023-01-29T11:50:22.604Z,46.94
2023-01-29T11:52:23.916Z,46.43
2023-01-29T11:54:25.250Z,47.06
2023-01-29T11:56:26.580Z,47.28
2023-01-29T11:58:27.888Z,47.12
2023-01-29T12:00:29.250Z,46.89
2023-01-29T12:02:31.542Z,47.06
2023-01-29T12:04:32.906Z,47.36
2023-01-29T12:06:34.247Z,47.57
2023-01-29T12:08:41.424Z,47.86
2023-01-29T12:10:42.882Z,47.91
2023-01-29T12:12:44.212Z,47.76
2023-01-29T12:14:45.634Z,47.79
2023-01-29T12:16:46.937Z,47.97
2023-01-29T12:18:48.315Z,48.05
2023-01-29T12:20:49.611Z,48.08
2023-01-29T12:22:50.961Z,48.41
2023-01-29T12:24:52.462Z,48.17
2023-01-29T12:26:53.768Z,47.91
2023-01-29T12:28:55.124Z,48.11
2023-01-29T12:30:59.522Z,48.33
2023-01-29T12:33:00.847Z,48.22
2023-01-29T12:35:02.764Z,48.15
2023-01-29T12:37:04.176Z,48.16
2023-01-29T12:39:05.550Z,48.60
2023-01-29T12:41:06.896Z,48.42
2023-01-29T12:43:08.241Z,48.95
2023-01-29T12:45:10.897Z,48.84
2023-01-29T12:47:12.264Z,49.31
2023-01-29T12:49:13.606Z,49.44
2023-01-29T12:51:14.948Z,49.63
2023-01-29T12:53:16.246Z,49.53
2023-01-29T12:55:17.559Z,50.21
2023-01-29T12:57:19.210Z,50.07
2023-01-29T12:59:20.502Z,49.83
2023-01-29T13:01:22.140Z,50.46
2023-01-29T13:03:23.579Z,50.06
2023-01-29T13:05:24.932Z,50.38
2023-01-29T13:07:26.225Z,50.51
2023-01-29T13:09:27.752Z,50.19
2023-01-29T13:11:29.145Z,50.26
2023-01-29T13:13:30.456Z,49.81
2023-01-29T13:15:31.752Z,49.90
2023-01-29T13:17:38.787Z,50.01
2023-01-29T13:19:43.495Z,49.91
2023-01-29T13:21:44.841Z,49.38
2023-01-29T13:23:47.329Z,49.22
2023-01-29T13:25:48.635Z,49.02
2023-01-29T13:27:49.971Z,49.42
2023-01-29T13:29:51.308Z,48.69
2023-01-29T13:31:52.975Z,48.28
2023-01-29T13:33:54.426Z,48.32
2023-01-29T13:36:01.616Z,48.14
2023-01-29T13:38:05.896Z,48.16
2023-01-29T13:40:07.223Z,47.91
2023-01-29T13:42:08.566Z,47.78
2023-01-29T13:44:09.918Z,47.78
2023-01-29T13:46:11.326Z,47.92
2023-01-29T13:48:12.723Z,47.66
2023-01-29T13:50:14.053Z,47.54
2023-01-29T13:52:15.390Z,47.35
2023-01-29T13:54:16.690Z,47.55
2023-01-29T13:56:21.094Z,47.54
2023-01-29T13:58:25.558Z,47.66
2023-01-29T14:00:33.111Z,47.48
2023-01-29T14:02:34.503Z,47.47
2023-01-29T14:04:35.823Z,47.38
2023-01-29T14:06:37.201Z,47.90
2023-01-29T14:08:38.501Z,48.13
2023-01-29T14:10:39.811Z,48.00
2023-01-29T14:12:41.260Z,48.22
2023-01-29T14:14:42.589Z,48.11
2023-01-29T14:16:44.008Z,48.53
2023-01-29T14:18:45.439Z,48.11
2023-01-29T14:20:49.500Z,48.32
2023-01-29T14:22:50.806Z,48.26
2023-01-29T14:24:52.136Z,48.06
2023-01-29T14:26:53.590Z,48.12
2023-01-29T14:28:55.080Z,48.32
2023-01-29T14:30:56.515Z,48.38
2023-01-29T14:32:57.910Z,48.27
2023-01-29T14:34:59.238Z,48.23
2023-01-29T14:37:00.565Z,48.36
2023-01-29T14:39:02.236Z,47.78
2023-01-29T14:41:03.532Z,47.98
2023-01-29T14:43:04.903Z,47.63
2023-01-29T14:45:06.233Z,47.73
2023-01-29T14:47:07.565Z,47.33
2023-01-29T14:49:09.082Z,47.62
2023-01-29T14:51:10.949Z,47.41
2023-01-29T14:53:12.353Z,47.52
2023-01-29T14:55:13.700Z,47.50
2023-01-29T14:57:15.045Z,47.39
2023-01-29T14:59:16.420Z,47.05
2023-01-29T15:01:18.240Z,47.38
2023-01-29T15:03:20.099Z,47.35
2023-01-29T15:05:21.463Z,47.33
2023-01-29T15:07:22.794Z,46.92
2023-01-29T15:09:26.774Z,47.05
2023-01-29T15:11:36.102Z,47.28
2023-01-29T15:13:37.507Z,47.31
2023-01-29T15:15:38.936Z,47.45
2023-01-29T15:17:40.322Z,47.31
2023-01-29T15:19:44.591Z,46.98
2023-01-29T15:21:45.890Z,47.21
2023-01-29T15:23:50.326Z,47.44
2023-01-29T15:25:51.653Z,47.08
2023-01-29T15:27:53.039Z,47.41
2023-01-29T15:29:54.340Z,47.41
2023-01-29T15:31:55.868Z,47.22
2023-01-29T15:34:03.221Z,47.24
2023-01-29T15:36:08.468Z,47.45
2023-01-29T15:38:10.097Z,47.48
2023-01-29T15:40:11.398Z,47.41
2023-01-29T15:42:12.736Z,47.57
2023-01-29T15:44:14.706Z,47.60
2023-01-29T15:46:16.006Z,47.55
2023-01-29T15:48:17.449Z,47.59
2023-01-29T15:50:18.786Z,47.44
2023-01-29T15:52:22.888Z,47.82
2023-01-29T15:54:24.390Z,47.58
2023-01-29T15:56:26.129Z,47.38
2023-01-29T15:58:27.459Z,47.26
2023-01-29T16:00:29.726Z,47.40
2023-01-29T16:02:31.167Z,47.64
2023-01-29T16:04:32.549Z,47.20
2023-01-29T16:06:33.875Z,47.17
2023-01-29T16:08:38.403Z,47.58
2023-01-29T16:10:40.592Z,47.34
2023-01-29T16:12:41.934Z,47.23
2023-01-29T16:14:43.307Z,47.24
2023-01-29T16:16:45.219Z,47.09
2023-01-29T16:18:59.464Z,47.22
2023-01-29T16:21:02.259Z,47.09
2023-01-29T16:23:03.565Z,46.88
2023-01-29T16:25:05.423Z,46.86
2023-01-29T16:27:06.756Z,47.12
2023-01-29T16:29:08.070Z,46.85
2023-01-29T16:31:13.998Z,46.77
2023-01-29T16:33:15.568Z,46.65
2023-01-29T16:35:17.428Z,46.77
2023-01-29T16:37:19.006Z,46.81
2023-01-29T16:39:23.337Z,46.92
2023-01-29T16:41:24.738Z,46.67
2023-01-29T16:43:28.412Z,46.64
2023-01-29T16:45:32.557Z,46.80
2023-01-29T16:47:34.465Z,46.67
2023-01-29T16:49:35.814Z,46.69
2023-01-29T16:51:37.116Z,46.64
2023-01-29T16:53:38.454Z,47.32
2023-01-29T16:55:39.786Z,46.67
2023-01-29T16:57:41.078Z,46.72
2023-01-29T16:59:43.443Z,46.97
2023-01-29T17:01:50.874Z,46.70
2023-01-29T17:03:52.279Z,47.14
2023-01-29T17:05:53.691Z,47.11
2023-01-29T17:07:54.982Z,47.21
2023-01-29T17:09:59.226Z,47.48
2023-01-29T17:12:00.557Z,47.80
2023-01-29T17:14:01.891Z,47.74
2023-01-29T17:16:03.740Z,48.03
2023-01-29T17:18:05.104Z,48.06
2023-01-29T17:20:06.433Z,48.25
2023-01-29T17:22:14.598Z,48.19
2023-01-29T17:24:15.987Z,48.48
2023-01-29T17:26:17.354Z,48.62
2023-01-29T17:28:18.720Z,48.69
2023-01-29T17:30:20.031Z,48.91
2023-01-29T17:32:22.507Z,49.63
2023-01-29T17:34:24.415Z,49.44
2023-01-29T17:36:25.754Z,49.36
2023-01-29T17:38:27.096Z,49.94
2023-01-29T17:40:28.431Z,48.88
2023-01-29T17:42:29.766Z,49.50
2023-01-29T17:44:31.487Z,48.75
2023-01-29T17:46:32.846Z,48.47
2023-01-29T17:48:34.142Z,49.62
2023-01-29T17:50:35.505Z,47.83
2023-01-29T17:52:36.813Z,48.12
2023-01-29T17:54:38.173Z,47.48
2023-01-29T17:56:39.501Z,47.89
2023-01-29T17:58:40.794Z,47.42
2023-01-29T18:00:44.782Z,47.91
2023-01-29T18:02:46.179Z,48.31
2023-01-29T18:04:50.930Z,47.74
2023-01-29T18:06:52.291Z,47.47
2023-01-29T18:08:53.623Z,47.47
2023-01-29T18:10:54.911Z,47.48
2023-01-29T18:12:56.238Z,46.34
2023-01-29T18:14:57.623Z,46.56
2023-01-29T18:17:02.013Z,47.27
2023-01-29T18:19:03.318Z,47.39
2023-01-29T18:21:08.086Z,47.58
2023-01-29T18:23:09.403Z,47.55
2023-01-29T18:25:10.701Z,47.43
2023-01-29T18:27:12.067Z,47.44
2023-01-29T18:29:16.502Z,47.08
2023-01-29T18:31:20.820Z,47.95
2023-01-29T18:33:25.904Z,46.49
2023-01-29T18:35:27.231Z,46.71
2023-01-29T18:37:34.298Z,47.14
2023-01-29T18:39:35.991Z,47.43
2023-01-29T18:41:37.559Z,47.12
2023-01-29T18:43:41.959Z,48.77
2023-01-29T18:45:43.315Z,48.46
2023-01-29T18:47:44.674Z,48.79
2023-01-29T18:49:46.039Z,47.81
2023-01-29T18:51:47.364Z,47.38
2023-01-29T18:53:48.690Z,47.65
2023-01-29T18:55:50.007Z,48.28
2023-01-29T18:58:28.282Z,50.08
2023-01-29T19:00:12.737Z,50.28
2023-01-29T19:02:19.685Z,48.94
2023-01-29T19:04:21.080Z,49.55
2023-01-29T19:06:22.422Z,49.50
2023-01-29T19:08:30.367Z,49.10
2023-01-29T19:10:31.680Z,49.21
2023-01-29T19:12:35.814Z,49.20
2023-01-29T19:14:37.144Z,49.06
2023-01-29T19:16:38.481Z,49.18
2023-01-29T19:18:39.829Z,47.84
2023-01-29T19:20:41.990Z,48.31
2023-01-29T19:22:43.433Z,49.43
2023-01-29T19:24:44.744Z,49.34
2023-01-29T19:26:46.342Z,49.21
2023-01-29T19:28:47.686Z,47.96
2023-01-29T19:30:49.325Z,48.31
2023-01-29T19:32:50.700Z,48.37
2023-01-29T19:34:53.259Z,48.66
2023-01-29T19:36:54.681Z,48.25
2023-01-29T19:38:56.625Z,48.24
2023-01-29T19:40:57.930Z,48.32
2023-01-29T19:42:59.532Z,48.04
2023-01-29T19:45:00.939Z,48.00
2023-01-29T19:47:02.311Z,48.01
2023-01-29T19:49:06.617Z,48.41
2023-01-29T19:51:10.751Z,48.43
2023-01-29T19:53:18.010Z,48.37
2023-01-29T19:55:19.857Z,48.21
2023-01-29T19:57:21.411Z,47.93
2023-01-29T19:59:22.706Z,48.28
2023-01-29T20:01:29.581Z,48.23
2023-01-29T20:03:30.960Z,48.48
2023-01-29T20:05:32.269Z,48.49
2023-01-29T20:07:33.559Z,48.51
2023-01-29T20:09:34.891Z,48.46
2023-01-29T20:11:36.260Z,48.49
2023-01-29T20:13:37.863Z,48.51
2023-01-29T20:15:39.158Z,48.56
2023-01-29T20:17:40.449Z,48.50
2023-01-29T20:19:42.653Z,48.54
2023-01-29T20:21:45.434Z,48.31
2023-01-29T20:23:47.435Z,48.52
2023-01-29T20:25:48.794Z,48.52
2023-01-29T20:27:50.112Z,48.23
2023-01-29T20:29:52.728Z,48.06
2023-01-29T20:31:56.849Z,48.16
2023-01-29T20:33:58.145Z,47.89
2023-01-29T20:35:59.628Z,47.90
2023-01-29T20:38:00.991Z,47.80
2023-01-29T20:40:02.326Z,48.06
2023-01-29T20:42:03.673Z,48.41
2023-01-29T20:44:04.969Z,47.51
2023-01-29T20:46:09.262Z,48.18
2023-01-29T20:48:19.826Z,47.64
2023-01-29T20:50:21.170Z,48.23
2023-01-29T20:52:22.481Z,47.43
2023-01-29T20:54:24.111Z,48.07
2023-01-29T20:56:36.088Z,47.92
2023-01-29T20:58:43.596Z,48.67
2023-01-29T21:00:44.932Z,47.59
2023-01-29T21:02:46.244Z,47.33
2023-01-29T21:04:47.588Z,46.38
2023-01-29T21:06:48.906Z,47.27
2023-01-29T21:10:51.552Z,47.62
2023-01-29T21:12:54.640Z,46.60
2023-01-29T21:14:58.747Z,46.52
2023-01-29T21:17:00.086Z,46.24
2023-01-29T21:19:03.375Z,46.98
2023-01-29T21:21:04.723Z,47.97
2023-01-29T21:23:07.211Z,48.04
2023-01-29T21:25:08.699Z,48.39
2023-01-29T21:27:10.039Z,48.81
2023-01-29T21:29:11.350Z,48.93
2023-01-29T21:31:14.376Z,49.02
2023-01-29T21:33:15.745Z,48.88
2023-01-29T21:35:17.046Z,48.83
2023-01-29T21:37:18.369Z,49.10
2023-01-29T21:39:21.097Z,48.69
2023-01-29T21:41:42.390Z,48.99
2023-01-29T21:43:43.708Z,49.00
2023-01-29T21:45:45.054Z,49.21
2023-01-29T21:47:46.538Z,49.08
2023-01-29T21:49:47.851Z,40.81
2023-01-29T21:51:49.182Z,37.62
2023-01-29T21:53:53.495Z,36.59
2023-01-29T21:55:54.905Z,40.99
2023-01-29T21:57:56.326Z,41.63
2023-01-29T22:00:00.999Z,41.06
2023-01-29T22:02:02.412Z,41.50
2023-01-29T22:04:03.913Z,42.18
2023-01-29T22:06:05.265Z,42.94
2023-01-29T22:08:06.600Z,43.00
2023-01-29T22:10:08.109Z,43.71
2023-01-29T22:12:09.573Z,43.75
2023-01-29T22:14:10.864Z,44.06
2023-01-29T22:16:12.195Z,44.42
2023-01-29T22:18:13.527Z,44.83
2023-01-29T22:20:15.574Z,44.97
2023-01-29T22:22:19.718Z,45.26
2023-01-29T22:24:21.050Z,45.39
2023-01-29T22:26:22.397Z,45.78
2023-01-29T22:28:23.706Z,45.52
2023-01-29T22:30:25.833Z,45.63
2023-01-29T22:32:27.289Z,46.35
2023-01-29T22:34:28.659Z,46.16
2023-01-29T22:36:29.954Z,46.29
2023-01-29T22:38:31.288Z,46.65
2023-01-29T22:40:32.620Z,46.90
2023-01-29T22:42:33.914Z,47.00
2023-01-29T22:44:35.274Z,47.30
2023-01-29T22:46:36.665Z,47.54
2023-01-29T22:48:38.060Z,47.91
2023-01-29T22:50:39.382Z,47.84
2023-01-29T22:52:42.889Z,48.02
2023-01-29T22:54:44.199Z,48.44
2023-01-29T22:56:45.589Z,48.43
2023-01-29T22:58:46.933Z,48.47
2023-01-29T23:00:48.259Z,48.69
2023-01-29T23:02:49.571Z,48.94
2023-01-29T23:04:51.055Z,49.28
2023-01-29T23:06:52.414Z,48.70
2023-01-29T23:08:53.704Z,49.17
2023-01-29T23:10:55.049Z,49.88
2023-01-29T23:12:56.348Z,50.02
2023-01-29T23:14:57.634Z,50.15
2023-01-29T23:16:58.980Z,50.15
2023-01-29T23:19:00.313Z,50.56
2023-01-29T23:21:01.611Z,50.48
2023-01-29T23:23:02.939Z,50.77
2023-01-29T23:25:04.318Z,50.61
2023-01-29T23:27:14.739Z,50.86
2023-01-29T23:29:16.039Z,51.04
2023-01-29T23:31:17.443Z,51.46
2023-01-29T23:33:18.782Z,51.29
2023-01-29T23:35:20.076Z,51.65
2023-01-29T23:37:21.419Z,51.65
2023-01-29T23:39:22.782Z,51.91
2023-01-29T23:41:24.086Z,52.08
2023-01-29T23:43:25.422Z,51.76
2023-01-29T23:45:26.787Z,51.75
2023-01-29T23:47:28.089Z,51.95
2023-01-29T23:49:29.392Z,51.73
2023-01-29T23:51:30.735Z,51.62
2023-01-29T23:53:32.059Z,51.74
2023-01-29T23:55:33.364Z,51.13
2023-01-29T23:57:34.755Z,50.93
2023-01-29T23:59:36.126Z,51.28
